createdAt,value
2018-04-17T00:00:57.386Z,13.41
2018-04-17T00:02:03.923Z,13.40
2018-04-17T00:03:09.694Z,13.38
2018-04-17T00:04:16.233Z,13.36
2018-04-17T00:05:22.024Z,13.35
2018-04-17T00:06:27.798Z,13.34
2018-04-17T00:07:33.569Z,13.34
2018-04-17T00:08:39.339Z,13.32
2018-04-17T00:09:45.099Z,13.30
2018-04-17T00:10:50.903Z,13.28
2018-04-17T00:11:57.450Z,13.27
2018-04-17T00:13:03.203Z,13.26
2018-04-17T00:14:08.979Z,13.24
2018-04-17T00:15:14.765Z,13.23
2018-04-17T00:16:20.561Z,13.23
2018-04-17T00:17:26.326Z,13.23
2018-04-17T00:18:32.096Z,13.22
2018-04-17T00:19:37.862Z,13.22
2018-04-17T00:20:44.392Z,13.20
2018-04-17T00:21:50.249Z,13.20
2018-04-17T00:22:56.043Z,13.17
2018-04-17T00:24:01.671Z,13.15
2018-04-17T00:25:07.439Z,13.15
2018-04-17T00:26:13.263Z,13.15
2018-04-17T00:27:18.719Z,13.13
2018-04-17T00:28:25.804Z,13.15
2018-04-17T00:29:31.580Z,13.14
2018-04-17T00:30:38.136Z,13.14
2018-04-17T00:31:44.696Z,13.13
2018-04-17T00:32:51.339Z,13.13
2018-04-17T00:33:57.099Z,13.12
2018-04-17T00:35:03.619Z,13.11
2018-04-17T00:36:09.383Z,13.08
2018-04-17T00:37:15.167Z,13.08
2018-04-17T00:38:20.955Z,13.08
2018-04-17T00:39:26.730Z,13.07
2018-04-17T00:40:33.252Z,13.05
2018-04-17T00:41:39.018Z,13.04
2018-04-17T00:42:45.555Z,13.02
2018-04-17T00:43:51.151Z,13.02
2018-04-17T00:44:56.918Z,13.02
2018-04-17T00:46:02.894Z,13.01
2018-04-17T00:47:08.664Z,13.01
2018-04-17T00:48:15.194Z,12.99
2018-04-17T00:49:22.508Z,12.96
2018-04-17T00:50:28.302Z,12.94
2018-04-17T00:51:34.071Z,12.92
2018-04-17T00:52:40.606Z,12.90
2018-04-17T00:53:54.058Z,12.90
2018-04-17T00:55:00.620Z,12.87
2018-04-17T00:56:07.147Z,12.87
2018-04-17T00:57:12.915Z,12.85
2018-04-17T00:58:18.689Z,12.84
2018-04-17T00:59:24.459Z,12.83
2018-04-17T01:00:30.247Z,12.83
2018-04-17T01:01:36.913Z,12.85
2018-04-17T01:02:43.460Z,12.85
2018-04-17T01:03:49.240Z,12.87
2018-04-17T01:04:55.004Z,12.86
2018-04-17T01:06:00.825Z,12.85
2018-04-17T01:07:06.588Z,12.82
2018-04-17T01:08:12.151Z,12.81
2018-04-17T01:09:17.976Z,12.81
2018-04-17T01:10:23.749Z,12.78
2018-04-17T01:11:29.543Z,12.78
2018-04-17T01:12:35.435Z,12.77
2018-04-17T01:13:41.214Z,12.76
2018-04-17T01:14:46.972Z,12.76
2018-04-17T01:15:52.747Z,12.76
2018-04-17T01:16:58.545Z,12.76
2018-04-17T01:18:04.319Z,12.75
2018-04-17T01:19:10.088Z,12.72
2018-04-17T01:20:15.883Z,12.70
2018-04-17T01:21:21.670Z,12.68
2018-04-17T01:22:27.258Z,12.65
2018-04-17T01:23:33.029Z,12.64
2018-04-17T01:24:38.787Z,12.60
2018-04-17T01:25:44.569Z,12.59
2018-04-17T01:26:50.448Z,12.55
2018-04-17T01:27:56.244Z,12.52
2018-04-17T01:29:02.011Z,12.51
2018-04-17T01:30:07.810Z,12.51
2018-04-17T01:31:14.401Z,12.49
2018-04-17T01:32:20.168Z,12.49
2018-04-17T01:33:25.759Z,12.48
2018-04-17T01:34:32.299Z,12.48
2018-04-17T01:35:38.069Z,12.45
2018-04-17T01:36:43.923Z,12.45
2018-04-17T01:37:49.687Z,12.45
2018-04-17T01:38:55.513Z,12.43
2018-04-17T01:40:01.299Z,12.42
2018-04-17T01:41:07.079Z,12.41
2018-04-17T01:42:13.620Z,12.39
2018-04-17T01:43:20.154Z,12.38
2018-04-17T01:44:25.951Z,12.38
2018-04-17T01:45:31.739Z,12.38
2018-04-17T01:46:37.512Z,12.37
2018-04-17T01:47:44.047Z,12.36
2018-04-17T01:48:49.807Z,12.36
2018-04-17T01:49:56.379Z,12.34
2018-04-17T01:51:02.905Z,12.32
2018-04-17T01:52:08.669Z,12.30
2018-04-17T01:53:14.979Z,12.31
2018-04-17T01:54:20.771Z,12.31
2018-04-17T01:55:26.552Z,12.31
2018-04-17T01:56:32.323Z,12.29
2018-04-17T01:57:38.103Z,12.30
2018-04-17T01:58:44.652Z,12.30
2018-04-17T01:59:50.454Z,12.30
2018-04-17T02:00:56.243Z,12.29
2018-04-17T02:02:02.783Z,12.29
2018-04-17T02:03:08.880Z,12.29
2018-04-17T02:04:14.820Z,12.29
2018-04-17T02:05:20.669Z,12.30
2018-04-17T02:06:26.499Z,12.30
2018-04-17T02:07:33.027Z,12.30
2018-04-17T02:08:38.795Z,12.29
2018-04-17T02:09:45.327Z,12.27
2018-04-17T02:10:51.086Z,12.28
2018-04-17T02:11:57.657Z,12.27
2018-04-17T02:13:04.186Z,12.28
2018-04-17T02:14:09.955Z,12.27
2018-04-17T02:15:16.587Z,12.26
2018-04-17T02:16:23.122Z,12.25
2018-04-17T02:17:28.915Z,12.25
2018-04-17T02:18:35.451Z,12.26
2018-04-17T02:19:41.222Z,12.24
2018-04-17T02:20:47.754Z,12.23
2018-04-17T02:21:53.526Z,12.22
2018-04-17T02:23:00.084Z,12.21
2018-04-17T02:24:06.633Z,12.21
2018-04-17T02:25:13.176Z,12.21
2018-04-17T02:26:18.943Z,12.20
2018-04-17T02:27:25.479Z,12.18
2018-04-17T02:28:30.952Z,12.18
2018-04-17T02:29:36.719Z,12.17
2018-04-17T02:30:42.504Z,12.16
2018-04-17T02:31:48.274Z,12.15
2018-04-17T02:32:55.013Z,12.13
2018-04-17T02:34:00.808Z,12.12
2018-04-17T02:35:06.592Z,12.11
2018-04-17T02:36:12.353Z,12.11
2018-04-17T02:37:18.907Z,12.08
2018-04-17T02:38:24.686Z,12.08
2018-04-17T02:39:30.469Z,12.09
2018-04-17T02:40:36.239Z,12.09
2018-04-17T02:41:42.783Z,12.07
2018-04-17T02:42:48.605Z,12.05
2018-04-17T02:43:54.383Z,12.05
2018-04-17T02:45:00.944Z,12.04
2018-04-17T02:46:07.487Z,12.04
2018-04-17T02:47:13.260Z,12.04
2018-04-17T02:48:19.026Z,12.02
2018-04-17T02:49:24.794Z,12.01
2018-04-17T02:50:30.371Z,11.99
2018-04-17T02:51:36.908Z,12.01
2018-04-17T02:52:42.683Z,12.01
2018-04-17T02:53:48.464Z,12.03
2018-04-17T02:54:54.009Z,12.02
2018-04-17T02:55:59.805Z,12.03
2018-04-17T02:57:05.585Z,12.04
2018-04-17T02:58:11.347Z,12.04
2018-04-17T02:59:17.113Z,12.05
2018-04-17T03:00:23.806Z,12.05
2018-04-17T03:01:29.646Z,12.04
2018-04-17T03:02:35.425Z,12.04
2018-04-17T03:03:41.195Z,12.05
2018-04-17T03:04:47.775Z,12.06
2018-04-17T03:05:54.323Z,12.10
2018-04-17T03:07:00.920Z,12.11
2018-04-17T03:08:06.701Z,12.14
2018-04-17T03:09:12.475Z,12.14
2018-04-17T03:10:19.052Z,12.15
2018-04-17T03:11:24.846Z,12.16
2018-04-17T03:12:30.665Z,12.15
2018-04-17T03:13:36.471Z,12.14
2018-04-17T03:14:42.326Z,12.12
2018-04-17T03:15:48.100Z,12.11
2018-04-17T03:16:53.904Z,12.07
2018-04-17T03:17:59.701Z,12.05
2018-04-17T03:19:05.475Z,12.03
2018-04-17T03:20:12.029Z,12.01
2018-04-17T03:21:18.574Z,11.99
2018-04-17T03:22:25.851Z,11.99
2018-04-17T03:23:31.646Z,11.97
2018-04-17T03:24:37.420Z,11.96
2018-04-17T03:25:44.703Z,11.95
2018-04-17T03:26:50.475Z,11.94
2018-04-17T03:27:57.014Z,11.93
2018-04-17T03:29:02.840Z,11.93
2018-04-17T03:30:08.610Z,11.91
2018-04-17T03:31:15.150Z,11.90
2018-04-17T03:32:20.923Z,11.87
2018-04-17T03:33:27.247Z,11.86
2018-04-17T03:34:32.802Z,11.84
2018-04-17T03:35:39.347Z,11.83
2018-04-17T03:36:45.107Z,11.83
2018-04-17T03:37:51.899Z,11.82
2018-04-17T03:38:57.671Z,11.80
2018-04-17T03:40:03.471Z,11.79
2018-04-17T03:41:10.003Z,11.77
2018-04-17T03:42:15.771Z,11.78
2018-04-17T03:43:22.305Z,11.79
2018-04-17T03:44:28.075Z,11.77
2018-04-17T03:45:33.867Z,11.78
2018-04-17T03:46:39.294Z,11.78
2018-04-17T03:47:45.066Z,11.76
2018-04-17T03:48:50.834Z,11.75
2018-04-17T03:49:56.626Z,11.75
2018-04-17T03:51:02.428Z,11.76
2018-04-17T03:52:08.197Z,11.76
2018-04-17T03:53:13.983Z,11.76
2018-04-17T03:54:19.751Z,11.76
2018-04-17T03:55:25.577Z,11.75
2018-04-17T03:56:32.131Z,11.76
2018-04-17T03:57:38.677Z,11.76
2018-04-17T03:58:46.053Z,11.75
2018-04-17T03:59:51.819Z,11.75
2018-04-17T04:00:58.402Z,11.76
2018-04-17T04:02:04.299Z,11.76
2018-04-17T04:03:10.114Z,11.76
2018-04-17T04:04:15.944Z,11.75
2018-04-17T04:05:21.750Z,11.76
2018-04-17T04:06:27.561Z,11.76
2018-04-17T04:07:33.364Z,11.77
2018-04-17T04:08:39.134Z,11.77
2018-04-17T04:09:45.183Z,11.77
2018-04-17T04:10:50.948Z,11.79
2018-04-17T04:11:56.734Z,11.80
2018-04-17T04:13:02.519Z,11.81
2018-04-17T04:14:08.282Z,11.81
2018-04-17T04:15:14.059Z,11.80
2018-04-17T04:16:36.565Z,11.79
2018-04-17T04:19:41.956Z,11.75
2018-04-17T04:21:04.687Z,11.71
2018-04-17T04:22:27.231Z,11.69
2018-04-17T04:23:49.929Z,11.66
2018-04-17T04:26:47.003Z,11.67
2018-04-17T04:27:53.916Z,11.70
2018-04-17T04:28:59.731Z,11.72
2018-04-17T04:30:04.891Z,11.71
2018-04-17T04:31:10.663Z,11.73
2018-04-17T04:32:16.979Z,11.76
2018-04-17T04:33:22.742Z,11.78
2018-04-17T04:34:28.306Z,11.80
2018-04-17T04:35:34.838Z,11.82
2018-04-17T04:36:40.612Z,11.83
2018-04-17T04:37:46.472Z,11.85
2018-04-17T04:38:52.260Z,11.86
2018-04-17T04:39:58.048Z,11.89
2018-04-17T04:41:03.825Z,11.90
2018-04-17T04:42:09.575Z,11.92
2018-04-17T04:43:15.346Z,11.94
2018-04-17T04:44:21.871Z,11.95
2018-04-17T04:45:27.654Z,11.97
2018-04-17T04:46:34.221Z,11.99
2018-04-17T04:47:40.744Z,12.01
2018-04-17T04:48:47.288Z,12.03
2018-04-17T04:49:53.057Z,12.05
2018-04-17T04:50:58.639Z,12.07
2018-04-17T04:52:04.428Z,12.10
2018-04-17T04:53:11.247Z,12.13
2018-04-17T04:54:17.021Z,12.14
2018-04-17T04:55:22.808Z,12.16
2018-04-17T04:56:29.387Z,12.20
2018-04-17T04:57:35.151Z,12.23
2018-04-17T04:58:40.939Z,12.26
2018-04-17T04:59:46.701Z,12.29
2018-04-17T05:00:53.233Z,12.33
2018-04-17T05:01:59.043Z,12.36
2018-04-17T05:03:04.859Z,12.41
2018-04-17T05:04:10.656Z,12.45
2018-04-17T05:05:17.948Z,12.48
2018-04-17T05:06:24.494Z,12.51
2018-04-17T05:07:31.199Z,12.55
2018-04-17T05:08:36.988Z,12.58
2018-04-17T05:09:42.814Z,12.60
2018-04-17T05:10:48.593Z,12.64
2018-04-17T05:11:55.193Z,12.67
2018-04-17T05:13:01.887Z,12.69
2018-04-17T05:14:07.496Z,12.73
2018-04-17T05:15:13.278Z,12.77
2018-04-17T05:16:18.873Z,12.80
2018-04-17T05:17:24.645Z,12.82
2018-04-17T05:18:30.498Z,12.86
2018-04-17T05:19:36.504Z,12.89
2018-04-17T05:20:42.280Z,12.92
2018-04-17T05:21:48.060Z,12.97
2018-04-17T05:22:54.998Z,13.03
2018-04-17T05:24:00.803Z,13.08
2018-04-17T05:25:06.603Z,13.14
2018-04-17T05:26:12.683Z,13.21
2018-04-17T05:27:19.224Z,13.29
2018-04-17T05:28:24.997Z,13.38
2018-04-17T05:29:31.592Z,13.47
2018-04-17T05:30:38.173Z,13.56
2018-04-17T05:31:44.801Z,13.65
2018-04-17T05:32:50.559Z,13.75
2018-04-17T05:33:56.314Z,13.86
2018-04-17T05:35:02.104Z,13.92
2018-04-17T05:36:08.657Z,13.98
2018-04-17T05:37:15.184Z,14.05
2018-04-17T05:38:20.962Z,14.10
2018-04-17T05:39:27.492Z,14.18
2018-04-17T05:40:33.304Z,14.24
2018-04-17T05:41:39.071Z,14.31
2018-04-17T05:42:44.843Z,14.39
2018-04-17T05:43:50.600Z,14.42
2018-04-17T05:44:57.132Z,14.50
2018-04-17T05:46:02.922Z,14.58
2018-04-17T05:47:08.711Z,14.69
2018-04-17T05:48:14.484Z,14.80
2018-04-17T05:49:20.678Z,14.87
2018-04-17T05:50:26.436Z,14.93
2018-04-17T05:51:32.224Z,14.92
2018-04-17T05:52:37.995Z,14.94
2018-04-17T05:53:43.759Z,14.89
2018-04-17T05:54:49.540Z,14.91
2018-04-17T05:55:56.123Z,14.96
2018-04-17T05:57:02.112Z,14.92
2018-04-17T05:58:07.888Z,14.90
2018-04-17T05:59:14.503Z,14.90
2018-04-17T06:00:20.260Z,14.90
2018-04-17T06:01:25.796Z,14.91
2018-04-17T06:02:31.054Z,14.90
2018-04-17T06:03:37.623Z,14.91
2018-04-17T06:04:43.404Z,14.89
2018-04-17T06:05:49.695Z,14.86
2018-04-17T06:06:55.461Z,14.86
2018-04-17T06:08:02.042Z,14.87
2018-04-17T06:09:07.166Z,14.88
2018-04-17T06:10:12.951Z,14.90
2018-04-17T06:11:19.475Z,14.96
2018-04-17T06:12:25.243Z,15.03
2018-04-17T06:13:31.380Z,15.11
2018-04-17T06:14:36.922Z,15.17
2018-04-17T06:15:42.697Z,15.25
2018-04-17T06:16:48.465Z,15.32
2018-04-17T06:17:54.999Z,15.42
2018-04-17T06:19:02.295Z,15.50
2018-04-17T06:20:08.819Z,15.58
2018-04-17T06:21:14.591Z,15.64
2018-04-17T06:22:21.118Z,15.66
2018-04-17T06:23:26.893Z,15.74
2018-04-17T06:24:33.464Z,15.82
2018-04-17T06:25:40.039Z,15.85
2018-04-17T06:26:45.812Z,15.89
2018-04-17T06:27:51.591Z,15.93
2018-04-17T06:28:58.130Z,16.01
2018-04-17T06:30:03.687Z,16.08
2018-04-17T06:31:10.227Z,16.14
2018-04-17T06:32:16.002Z,16.17
2018-04-17T06:33:22.538Z,16.17
2018-04-17T06:34:29.813Z,16.21
2018-04-17T06:35:35.651Z,16.21
2018-04-17T06:36:42.178Z,16.26
2018-04-17T06:37:47.959Z,16.33
2018-04-17T06:38:53.739Z,16.36
2018-04-17T06:39:59.505Z,16.40
2018-04-17T06:41:05.299Z,16.45
2018-04-17T06:42:11.888Z,16.50
2018-04-17T06:43:17.732Z,16.57
2018-04-17T06:44:23.708Z,16.62
2018-04-17T06:45:29.481Z,16.69
2018-04-17T06:46:35.365Z,16.74
2018-04-17T06:47:41.219Z,16.80
2018-04-17T06:48:47.133Z,16.86
2018-04-17T06:49:53.671Z,16.87
2018-04-17T06:50:59.455Z,16.90
2018-04-17T06:52:05.230Z,16.99
2018-04-17T06:53:11.040Z,17.07
2018-04-17T06:54:17.581Z,17.24
2018-04-17T06:55:24.119Z,17.49
2018-04-17T06:56:29.900Z,17.81
2018-04-17T06:57:36.455Z,18.19
2018-04-17T06:58:42.216Z,18.58
2018-04-17T06:59:47.976Z,18.99
2018-04-17T07:00:53.751Z,19.44
2018-04-17T07:02:00.283Z,19.89
2018-04-17T07:03:06.089Z,20.33
2018-04-17T07:04:11.857Z,20.78
2018-04-17T07:05:17.654Z,21.24
2018-04-17T07:06:23.616Z,21.67
2018-04-17T07:07:29.379Z,22.08
2018-04-17T07:08:35.184Z,22.43
2018-04-17T07:09:41.048Z,22.78
2018-04-17T07:10:46.812Z,23.08
2018-04-17T07:11:52.583Z,23.32
2018-04-17T07:12:58.355Z,23.66
2018-04-17T07:14:05.368Z,23.96
2018-04-17T07:15:10.988Z,24.21
2018-04-17T07:16:17.444Z,24.31
2018-04-17T07:17:23.659Z,24.34
2018-04-17T07:18:30.211Z,24.37
2018-04-17T07:19:36.007Z,24.44
2018-04-17T07:20:42.593Z,24.56
2018-04-17T07:21:48.377Z,24.69
2018-04-17T07:22:54.711Z,24.87
2018-04-17T07:24:00.712Z,25.11
2018-04-17T07:25:06.501Z,25.30
2018-04-17T07:26:12.502Z,25.44
2018-04-17T07:27:18.266Z,25.53
2018-04-17T07:28:23.714Z,25.64
2018-04-17T07:29:29.502Z,25.74
2018-04-17T07:30:35.494Z,25.77
2018-04-17T07:31:41.267Z,25.76
2018-04-17T07:32:47.811Z,25.70
2018-04-17T07:33:55.140Z,25.60
2018-04-17T07:35:01.057Z,25.68
2018-04-17T07:36:07.102Z,25.84
2018-04-17T07:37:12.875Z,25.99
2018-04-17T07:38:18.663Z,26.12
2018-04-17T07:39:24.434Z,26.15
2018-04-17T07:40:31.011Z,26.11
2018-04-17T07:41:36.986Z,26.12
2018-04-17T07:42:42.752Z,26.20
2018-04-17T07:43:48.532Z,26.33
2018-04-17T07:44:55.068Z,26.44
2018-04-17T07:46:01.067Z,26.58
2018-04-17T07:47:30.934Z,26.71
2018-04-17T07:48:50.377Z,26.78
2018-04-17T07:49:56.194Z,26.78
2018-04-17T07:51:01.964Z,26.78
2018-04-17T07:52:07.737Z,26.83
2018-04-17T07:53:14.302Z,26.87
2018-04-17T07:54:20.836Z,26.88
2018-04-17T07:55:26.617Z,26.95
2018-04-17T07:56:32.393Z,27.03
2018-04-17T07:57:38.171Z,27.18
2018-04-17T07:58:44.788Z,27.26
2018-04-17T07:59:50.558Z,27.28
2018-04-17T08:00:57.834Z,27.23
2018-04-17T08:02:03.621Z,27.25
2018-04-17T08:03:09.438Z,27.53
2018-04-17T08:04:15.255Z,27.80
2018-04-17T08:05:21.039Z,27.99
2018-04-17T08:06:26.806Z,28.07
2018-04-17T08:07:32.583Z,28.39
2018-04-17T08:08:38.360Z,28.68
2018-04-17T08:09:44.155Z,28.97
2018-04-17T08:10:49.934Z,29.41
2018-04-17T08:11:56.521Z,29.69
2018-04-17T08:13:02.455Z,29.82
2018-04-17T08:14:08.308Z,29.97
2018-04-17T08:15:14.115Z,30.07
2018-04-17T08:16:20.660Z,29.88
2018-04-17T08:17:26.426Z,29.77
2018-04-17T08:18:32.644Z,29.70
2018-04-17T08:19:38.421Z,29.60
2018-04-17T08:20:44.988Z,29.50
2018-04-17T08:21:51.535Z,29.56
2018-04-17T08:22:58.130Z,29.78
2018-04-17T08:24:03.899Z,30.05
2018-04-17T08:25:09.717Z,30.22
2018-04-17T08:26:15.508Z,30.43
2018-04-17T08:27:21.276Z,30.72
2018-04-17T08:28:27.822Z,30.88
2018-04-17T08:29:34.381Z,30.85
2018-04-17T08:30:40.923Z,31.03
2018-04-17T08:31:46.723Z,31.12
2018-04-17T08:32:52.494Z,31.35
2018-04-17T08:33:58.280Z,31.66
2018-04-17T08:35:04.824Z,32.03
2018-04-17T08:36:10.609Z,32.26
2018-04-17T08:37:16.396Z,32.44
2018-04-17T08:38:22.186Z,32.46
2018-04-17T08:39:27.963Z,31.98
2018-04-17T08:40:33.732Z,31.96
2018-04-17T08:41:39.512Z,31.79
2018-04-17T08:42:45.379Z,31.70
2018-04-17T08:43:51.309Z,31.83
2018-04-17T08:44:57.080Z,31.76
2018-04-17T08:46:02.857Z,32.10
2018-04-17T08:47:09.413Z,32.03
2018-04-17T08:48:15.194Z,31.88
2018-04-17T08:49:20.957Z,32.03
2018-04-17T08:50:26.707Z,31.72
2018-04-17T08:51:32.680Z,31.78
2018-04-17T08:52:38.452Z,31.49
2018-04-17T08:53:44.266Z,31.46
2018-04-17T08:54:50.057Z,31.65
2018-04-17T08:55:55.812Z,31.34
2018-04-17T08:57:01.591Z,31.13
2018-04-17T08:58:07.360Z,31.46
2018-04-17T08:59:13.910Z,31.74
2018-04-17T09:00:20.498Z,32.15
2018-04-17T09:01:26.262Z,32.47
2018-04-17T09:02:32.081Z,32.48
2018-04-17T09:03:37.834Z,32.39
2018-04-17T09:04:43.669Z,32.21
2018-04-17T09:05:50.382Z,32.00
2018-04-17T09:06:55.901Z,31.67
2018-04-17T09:08:01.663Z,31.63
2018-04-17T09:09:06.528Z,31.69
2018-04-17T09:10:12.316Z,31.93
2018-04-17T09:11:18.093Z,31.90
2018-04-17T09:12:24.404Z,31.79
2018-04-17T09:13:30.220Z,31.66
2018-04-17T09:14:35.963Z,31.62
2018-04-17T09:15:41.755Z,31.69
2018-04-17T09:16:47.503Z,31.41
2018-04-17T09:17:53.578Z,30.90
2018-04-17T09:18:59.328Z,30.69
2018-04-17T09:20:05.330Z,30.65
2018-04-17T09:21:11.428Z,30.99
2018-04-17T09:22:17.182Z,31.22
2018-04-17T09:23:22.709Z,31.42
2018-04-17T09:24:28.454Z,31.82
2018-04-17T09:25:34.215Z,31.95
2018-04-17T09:26:40.003Z,32.30
2018-04-17T09:27:46.524Z,32.51
2018-04-17T09:28:52.262Z,32.45
2018-04-17T09:29:58.341Z,32.50
2018-04-17T09:31:04.091Z,32.59
2018-04-17T09:32:09.889Z,32.71
2018-04-17T09:33:15.726Z,32.74
2018-04-17T09:34:21.632Z,32.63
2018-04-17T09:35:28.151Z,32.34
2018-04-17T09:36:33.907Z,32.31
2018-04-17T09:37:39.683Z,32.38
2018-04-17T09:38:45.444Z,32.23
2018-04-17T09:39:51.043Z,32.40
2018-04-17T09:40:57.567Z,32.58
2018-04-17T09:42:03.323Z,32.44
2018-04-17T09:43:09.108Z,32.17
2018-04-17T09:44:14.950Z,31.95
2018-04-17T09:45:21.511Z,31.80
2018-04-17T09:46:27.271Z,31.82
2018-04-17T09:47:33.295Z,31.88
2018-04-17T09:48:40.338Z,31.82
2018-04-17T09:49:46.080Z,31.61
2018-04-17T09:50:51.841Z,31.40
2018-04-17T09:51:58.369Z,31.27
2018-04-17T09:53:04.110Z,31.17
2018-04-17T09:54:09.884Z,31.07
2018-04-17T09:55:16.399Z,30.82
2018-04-17T09:56:22.176Z,30.71
2018-04-17T09:57:27.595Z,30.78
2018-04-17T09:58:34.161Z,30.85
2018-04-17T09:59:39.696Z,30.97
2018-04-17T10:00:50.738Z,31.06
2018-04-17T10:01:56.522Z,30.70
2018-04-17T10:03:03.050Z,30.77
2018-04-17T10:04:08.807Z,30.58
2018-04-17T10:05:14.600Z,30.48
2018-04-17T10:06:20.364Z,30.46
2018-04-17T10:07:26.164Z,30.43
2018-04-17T10:08:31.921Z,30.39
2018-04-17T10:09:37.687Z,30.14
2018-04-17T10:10:43.480Z,29.96
2018-04-17T10:11:50.223Z,30.02
2018-04-17T10:12:56.000Z,29.88
2018-04-17T10:14:01.754Z,29.90
2018-04-17T10:15:07.495Z,29.76
2018-04-17T10:16:13.292Z,29.42
2018-04-17T10:17:19.816Z,29.32
2018-04-17T10:18:25.578Z,29.10
2018-04-17T10:19:31.330Z,28.90
2018-04-17T10:20:37.087Z,28.84
2018-04-17T10:21:43.398Z,28.74
2018-04-17T10:22:49.166Z,28.61
2018-04-17T10:23:54.947Z,28.56
2018-04-17T10:25:00.711Z,28.34
2018-04-17T10:26:06.466Z,28.20
2018-04-17T10:27:12.030Z,27.87
2018-04-17T10:28:17.804Z,27.41
2018-04-17T10:29:23.568Z,27.12
2018-04-17T10:30:29.335Z,27.00
2018-04-17T10:31:34.868Z,26.98
2018-04-17T10:32:40.663Z,27.12
2018-04-17T10:33:46.416Z,27.25
2018-04-17T10:34:52.284Z,27.34
2018-04-17T10:35:58.051Z,27.19
2018-04-17T10:37:03.834Z,27.00
2018-04-17T10:38:09.630Z,26.82
2018-04-17T10:39:15.398Z,26.76
2018-04-17T10:40:21.699Z,26.69
2018-04-17T10:41:27.475Z,26.61
2018-04-17T10:42:33.370Z,26.38
2018-04-17T10:43:39.171Z,26.15
2018-04-17T10:44:44.935Z,25.86
2018-04-17T10:45:51.504Z,25.74
2018-04-17T10:46:57.275Z,25.51
2018-04-17T10:48:03.051Z,25.46
2018-04-17T10:49:08.847Z,25.37
2018-04-17T10:50:14.619Z,25.21
2018-04-17T10:51:21.160Z,25.09
2018-04-17T10:52:26.964Z,25.03
2018-04-17T10:53:32.816Z,24.87
2018-04-17T10:54:38.611Z,24.77
2018-04-17T10:55:45.157Z,24.36
2018-04-17T10:56:50.928Z,24.44
2018-04-17T10:57:56.714Z,24.46
2018-04-17T10:59:02.476Z,24.43
2018-04-17T11:00:08.040Z,24.30
2018-04-17T11:01:13.806Z,24.33
2018-04-17T11:02:20.343Z,24.34
2018-04-17T11:03:26.111Z,24.22
2018-04-17T11:04:32.639Z,24.12
2018-04-17T11:05:38.431Z,23.93
2018-04-17T11:06:44.198Z,24.01
2018-04-17T11:07:49.988Z,23.96
2018-04-17T11:08:55.854Z,23.87
2018-04-17T11:10:01.611Z,23.78
2018-04-17T11:11:07.396Z,23.68
2018-04-17T11:12:12.977Z,23.70
2018-04-17T11:13:19.598Z,23.69
2018-04-17T11:14:25.368Z,23.72
2018-04-17T11:15:31.142Z,23.77
2018-04-17T11:16:36.951Z,23.65
2018-04-17T11:17:43.483Z,23.49
2018-04-17T11:18:49.253Z,23.28
2018-04-17T11:19:55.781Z,23.15
2018-04-17T11:21:01.547Z,23.28
2018-04-17T11:22:08.123Z,23.40
2018-04-17T11:23:13.959Z,23.44
2018-04-17T11:24:19.887Z,23.42
2018-04-17T11:25:26.419Z,23.42
2018-04-17T11:26:32.190Z,23.43
2018-04-17T11:27:38.754Z,23.29
2018-04-17T11:28:45.299Z,23.21
2018-04-17T11:29:50.880Z,23.21
2018-04-17T11:30:56.661Z,23.31
2018-04-17T11:32:02.439Z,23.37
2018-04-17T11:33:09.024Z,23.39
2018-04-17T11:34:14.802Z,23.32
2018-04-17T11:35:20.659Z,23.25
2018-04-17T11:36:26.432Z,23.14
2018-04-17T11:37:32.968Z,23.12
2018-04-17T11:38:38.775Z,22.96
2018-04-17T11:39:44.230Z,23.04
2018-04-17T11:40:49.999Z,23.18
2018-04-17T11:41:56.558Z,23.29
2018-04-17T11:43:03.130Z,23.40
2018-04-17T11:44:09.102Z,23.45
2018-04-17T11:45:14.906Z,23.47
2018-04-17T11:46:20.665Z,23.38
2018-04-17T11:47:26.446Z,23.11
2018-04-17T11:48:32.240Z,23.04
2018-04-17T11:49:38.791Z,22.98
2018-04-17T11:50:45.130Z,22.97
2018-04-17T11:51:50.907Z,23.04
2018-04-17T11:52:57.439Z,23.00
2018-04-17T11:54:03.227Z,22.97
2018-04-17T11:55:09.372Z,22.91
2018-04-17T11:56:15.143Z,22.94
2018-04-17T11:57:20.913Z,23.02
2018-04-17T11:58:26.682Z,22.92
2018-04-17T11:59:32.234Z,22.99
2018-04-17T12:00:38.031Z,22.96
2018-04-17T12:01:44.847Z,22.99
2018-04-17T12:02:50.629Z,23.01
2018-04-17T12:03:56.176Z,23.09
2018-04-17T12:05:02.755Z,23.18
2018-04-17T12:06:09.315Z,23.22
2018-04-17T12:07:15.858Z,23.29
2018-04-17T12:08:21.399Z,23.23
2018-04-17T12:09:27.236Z,23.17
2018-04-17T12:10:32.784Z,23.17
2018-04-17T12:11:38.577Z,23.22
2018-04-17T12:12:44.123Z,23.30
2018-04-17T12:13:49.669Z,23.37
2018-04-17T12:14:55.442Z,23.47
2018-04-17T12:16:01.751Z,23.52
2018-04-17T12:17:07.544Z,23.45
2018-04-17T12:18:14.139Z,23.44
2018-04-17T12:19:20.140Z,23.43
2018-04-17T12:20:26.076Z,23.36
2018-04-17T12:21:32.001Z,23.29
2018-04-17T12:22:37.789Z,23.14
2018-04-17T12:23:44.348Z,22.89
2018-04-17T12:24:50.900Z,22.83
2018-04-17T12:25:57.446Z,22.67
2018-04-17T12:27:03.243Z,22.71
2018-04-17T12:28:09.050Z,22.72
2018-04-17T12:29:15.584Z,22.75
2018-04-17T12:30:22.131Z,22.78
2018-04-17T12:31:27.912Z,22.68
2018-04-17T12:32:34.526Z,22.58
2018-04-17T12:33:40.405Z,22.54
2018-04-17T12:34:46.188Z,22.56
2018-04-17T12:35:51.955Z,22.55
2018-04-17T12:36:57.733Z,22.45
2018-04-17T12:38:03.543Z,22.43
2018-04-17T12:39:09.328Z,22.46
2018-04-17T12:40:15.869Z,22.46
2018-04-17T12:41:21.679Z,22.38
2018-04-17T12:42:27.449Z,22.32
2018-04-17T12:43:33.235Z,22.32
2018-04-17T12:44:39.024Z,22.18
2018-04-17T12:45:44.801Z,22.10
2018-04-17T12:46:51.336Z,21.95
2018-04-17T12:47:57.117Z,21.95
2018-04-17T12:49:02.908Z,21.96
2018-04-17T12:50:08.823Z,21.93
2018-04-17T12:51:14.594Z,21.81
2018-04-17T12:52:20.467Z,21.73
2018-04-17T12:53:27.014Z,21.61
2018-04-17T12:54:32.784Z,21.52
2018-04-17T12:55:39.367Z,21.46
2018-04-17T12:56:45.142Z,21.51
2018-04-17T12:57:50.915Z,21.45
2018-04-17T12:58:57.461Z,21.54
2018-04-17T13:00:04.234Z,21.63
2018-04-17T13:01:10.031Z,21.67
2018-04-17T13:02:15.807Z,21.67
2018-04-17T13:03:21.585Z,21.74
2018-04-17T13:04:27.363Z,21.75
2018-04-17T13:05:33.133Z,21.77
2018-04-17T13:06:38.932Z,21.74
2018-04-17T13:07:44.750Z,21.78
2018-04-17T13:08:50.698Z,21.78
2018-04-17T13:09:56.917Z,21.82
2018-04-17T13:11:02.696Z,21.82
2018-04-17T13:12:08.301Z,21.78
2018-04-17T13:13:14.068Z,21.67
2018-04-17T13:14:20.859Z,21.69
2018-04-17T13:15:26.631Z,21.72
2018-04-17T13:16:32.416Z,21.75
2018-04-17T13:17:38.209Z,21.80
2018-04-17T13:18:43.997Z,21.85
2018-04-17T13:19:50.570Z,21.90
2018-04-17T13:20:57.106Z,21.89
2018-04-17T13:23:22.022Z,21.90
2018-04-17T13:24:27.565Z,21.95
2018-04-17T13:25:33.344Z,21.91
2018-04-17T13:26:38.883Z,21.92
2018-04-17T13:27:44.690Z,21.90
2018-04-17T13:28:50.485Z,21.84
2018-04-17T13:29:56.252Z,21.88
2018-04-17T13:31:02.787Z,21.96
2018-04-17T13:32:08.565Z,21.97
2018-04-17T13:33:15.099Z,22.00
2018-04-17T13:34:20.967Z,22.03
2018-04-17T13:35:27.511Z,22.06
2018-04-17T13:36:32.950Z,22.11
2018-04-17T13:37:39.517Z,22.07
2018-04-17T13:38:46.309Z,22.02
2018-04-17T13:39:52.140Z,21.97
2018-04-17T13:40:57.683Z,21.91
2018-04-17T13:42:03.612Z,21.84
2018-04-17T13:43:09.432Z,21.81
2018-04-17T13:44:15.207Z,21.72
2018-04-17T13:45:21.042Z,21.62
2018-04-17T13:46:27.938Z,21.64
2018-04-17T13:47:33.723Z,21.65
2018-04-17T13:48:39.267Z,21.64
2018-04-17T13:49:45.139Z,21.62
2018-04-17T13:50:50.948Z,21.62
2018-04-17T13:51:57.483Z,21.63
2018-04-17T13:53:03.415Z,21.67
2018-04-17T13:54:09.203Z,21.69
2018-04-17T13:55:15.174Z,21.62
2018-04-17T13:56:20.979Z,21.67
2018-04-17T13:57:26.757Z,21.67
2018-04-17T13:58:32.536Z,21.63
2018-04-17T13:59:38.313Z,21.59
2018-04-17T14:00:44.087Z,21.54
2018-04-17T14:01:49.899Z,21.53
2018-04-17T14:02:55.693Z,21.63
2018-04-17T14:04:01.472Z,21.61
2018-04-17T14:05:07.258Z,21.51
2018-04-17T14:06:13.027Z,21.51
2018-04-17T14:07:18.819Z,21.42
2018-04-17T14:08:25.359Z,21.46
2018-04-17T14:09:31.167Z,21.58
2018-04-17T14:10:36.936Z,21.69
2018-04-17T14:11:42.708Z,21.64
2018-04-17T14:12:49.279Z,21.59
2018-04-17T14:13:55.818Z,21.64
2018-04-17T14:15:01.595Z,21.71
2018-04-17T14:16:07.380Z,21.84
2018-04-17T14:17:13.202Z,21.95